sensor_id;sensor_type;location;lat;lon;timestamp;P1;durP1;ratioP1;P2;durP2;ratioP2
1136;SDS011;557;48.466;7.950;2022-11-30T00:00:45;42.30;;;14.90;;
1136;SDS011;557;48.466;7.950;2022-11-30T00:03:32;36.60;;;14.60;;
1136;SDS011;557;48.466;7.950;2022-11-30T00:06:18;32.77;;;13.30;;
1136;SDS011;557;48.466;7.950;2022-11-30T00:09:06;39.53;;;14.90;;
1136;SDS011;557;48.466;7.950;2022-11-30T00:11:52;43.03;;;15.73;;
1136;SDS011;557;48.466;7.950;2022-11-30T00:14:38;35.53;;;14.03;;
1136;SDS011;557;48.466;7.950;2022-11-30T00:17:23;40.07;;;16.40;;
1136;SDS011;557;48.466;7.950;2022-11-30T00:20:11;34.83;;;12.80;;
1136;SDS011;557;48.466;7.950;2022-11-30T00:22:57;40.20;;;14.23;;
1136;SDS011;557;48.466;7.950;2022-11-30T00:25:43;44.37;;;14.03;;
1136;SDS011;557;48.466;7.950;2022-11-30T00:28:29;39.77;;;16.23;;
1136;SDS011;557;48.466;7.950;2022-11-30T00:31:16;42.10;;;15.50;;
1136;SDS011;557;48.466;7.950;2022-11-30T00:34:03;39.83;;;13.93;;
1136;SDS011;557;48.466;7.950;2022-11-30T00:36:50;34.17;;;14.23;;
1136;SDS011;557;48.466;7.950;2022-11-30T00:39:36;40.73;;;13.93;;
1136;SDS011;557;48.466;7.950;2022-11-30T00:42:21;36.83;;;14.93;;
1136;SDS011;557;48.466;7.950;2022-11-30T00:45:07;36.63;;;14.53;;
1136;SDS011;557;48.466;7.950;2022-11-30T00:47:53;35.57;;;14.33;;
1136;SDS011;557;48.466;7.950;2022-11-30T00:50:39;32.80;;;13.77;;
1136;SDS011;557;48.466;7.950;2022-11-30T00:53:26;31.50;;;12.67;;
1136;SDS011;557;48.466;7.950;2022-11-30T00:56:12;34.30;;;14.57;;
1136;SDS011;557;48.466;7.950;2022-11-30T00:58:58;33.43;;;13.40;;
1136;SDS011;557;48.466;7.950;2022-11-30T01:01:43;39.53;;;16.33;;
1136;SDS011;557;48.466;7.950;2022-11-30T01:04:29;37.10;;;14.03;;
1136;SDS011;557;48.466;7.950;2022-11-30T01:07:15;32.77;;;14.33;;
1136;SDS011;557;48.466;7.950;2022-11-30T01:10:02;33.60;;;13.47;;
1136;SDS011;557;48.466;7.950;2022-11-30T01:12:48;29.47;;;13.00;;
1136;SDS011;557;48.466;7.950;2022-11-30T01:15:34;33.80;;;14.70;;
1136;SDS011;557;48.466;7.950;2022-11-30T01:18:21;39.80;;;15.50;;
1136;SDS011;557;48.466;7.950;2022-11-30T01:21:07;36.43;;;14.27;;
1136;SDS011;557;48.466;7.950;2022-11-30T01:23:54;42.77;;;15.33;;
1136;SDS011;557;48.466;7.950;2022-11-30T01:26:41;35.67;;;15.77;;
1136;SDS011;557;48.466;7.950;2022-11-30T01:29:27;39.00;;;14.97;;
1136;SDS011;557;48.466;7.950;2022-11-30T01:32:13;37.83;;;15.73;;
1136;SDS011;557;48.466;7.950;2022-11-30T01:34:58;38.77;;;15.60;;
1136;SDS011;557;48.466;7.950;2022-11-30T01:37:44;41.93;;;15.60;;
1136;SDS011;557;48.466;7.950;2022-11-30T01:40:29;44.23;;;17.37;;
1136;SDS011;557;48.466;7.950;2022-11-30T01:43:16;46.50;;;17.03;;
1136;SDS011;557;48.466;7.950;2022-11-30T01:46:04;37.70;;;15.13;;
1136;SDS011;557;48.466;7.950;2022-11-30T01:48:53;46.23;;;17.00;;
1136;SDS011;557;48.466;7.950;2022-11-30T01:51:44;45.47;;;16.23;;
1136;SDS011;557;48.466;7.950;2022-11-30T01:54:33;34.73;;;16.17;;
1136;SDS011;557;48.466;7.950;2022-11-30T01:57:24;37.73;;;17.50;;
1136;SDS011;557;48.466;7.950;2022-11-30T02:00:17;36.97;;;14.60;;
1136;SDS011;557;48.466;7.950;2022-11-30T02:03:04;37.47;;;16.10;;
1136;SDS011;557;48.466;7.950;2022-11-30T02:05:53;36.87;;;16.63;;
1136;SDS011;557;48.466;7.950;2022-11-30T02:08:39;36.90;;;15.67;;
1136;SDS011;557;48.466;7.950;2022-11-30T02:11:24;37.27;;;15.73;;
1136;SDS011;557;48.466;7.950;2022-11-30T02:14:17;34.00;;;15.43;;
1136;SDS011;557;48.466;7.950;2022-11-30T02:17:16;38.90;;;15.53;;
1136;SDS011;557;48.466;7.950;2022-11-30T02:20:13;40.80;;;15.40;;
1136;SDS011;557;48.466;7.950;2022-11-30T02:23:33;36.97;;;15.20;;
1136;SDS011;557;48.466;7.950;2022-11-30T02:26:35;35.13;;;15.20;;
1136;SDS011;557;48.466;7.950;2022-11-30T02:29:49;36.67;;;16.63;;
1136;SDS011;557;48.466;7.950;2022-11-30T02:32:41;42.10;;;16.80;;
1136;SDS011;557;48.466;7.950;2022-11-30T02:35:32;36.03;;;15.37;;
1136;SDS011;557;48.466;7.950;2022-11-30T02:38:24;38.50;;;16.93;;
1136;SDS011;557;48.466;7.950;2022-11-30T02:41:12;35.10;;;15.27;;
1136;SDS011;557;48.466;7.950;2022-11-30T02:43:57;36.93;;;15.80;;
1136;SDS011;557;48.466;7.950;2022-11-30T02:46:48;33.60;;;16.40;;
1136;SDS011;557;48.466;7.950;2022-11-30T02:49:43;35.87;;;16.70;;
1136;SDS011;557;48.466;7.950;2022-11-30T02:52:33;39.63;;;16.97;;
1136;SDS011;557;48.466;7.950;2022-11-30T02:55:20;37.23;;;15.70;;
1136;SDS011;557;48.466;7.950;2022-11-30T02:58:06;41.77;;;17.13;;
1136;SDS011;557;48.466;7.950;2022-11-30T03:00:52;42.87;;;15.90;;
1136;SDS011;557;48.466;7.950;2022-11-30T03:03:39;36.10;;;16.13;;
1136;SDS011;557;48.466;7.950;2022-11-30T03:06:24;37.33;;;16.17;;
1136;SDS011;557;48.466;7.950;2022-11-30T03:09:10;39.13;;;16.90;;
1136;SDS011;557;48.466;7.950;2022-11-30T03:11:56;35.87;;;15.30;;
1136;SDS011;557;48.466;7.950;2022-11-30T03:14:42;39.10;;;18.13;;
1136;SDS011;557;48.466;7.950;2022-11-30T03:17:27;36.43;;;15.47;;
1136;SDS011;557;48.466;7.950;2022-11-30T03:20:14;28.97;;;14.07;;
1136;SDS011;557;48.466;7.950;2022-11-30T03:23:00;33.23;;;15.63;;
1136;SDS011;557;48.466;7.950;2022-11-30T03:25:46;34.50;;;15.50;;
1136;SDS011;557;48.466;7.950;2022-11-30T03:28:31;35.83;;;15.90;;
1136;SDS011;557;48.466;7.950;2022-11-30T03:31:17;34.17;;;16.03;;
1136;SDS011;557;48.466;7.950;2022-11-30T03:34:03;29.90;;;14.03;;
1136;SDS011;557;48.466;7.950;2022-11-30T03:36:49;40.07;;;15.40;;
1136;SDS011;557;48.466;7.950;2022-11-30T03:39:36;34.37;;;16.23;;
1136;SDS011;557;48.466;7.950;2022-11-30T03:42:21;34.10;;;14.17;;
1136;SDS011;557;48.466;7.950;2022-11-30T03:45:07;35.97;;;15.60;;
1136;SDS011;557;48.466;7.950;2022-11-30T03:47:53;34.90;;;14.67;;
1136;SDS011;557;48.466;7.950;2022-11-30T03:50:39;29.10;;;14.73;;
1136;SDS011;557;48.466;7.950;2022-11-30T03:53:26;36.10;;;15.77;;
1136;SDS011;557;48.466;7.950;2022-11-30T03:56:12;39.83;;;16.90;;
1136;SDS011;557;48.466;7.950;2022-11-30T03:58:59;40.33;;;15.33;;
1136;SDS011;557;48.466;7.950;2022-11-30T04:01:44;29.00;;;14.70;;
1136;SDS011;557;48.466;7.950;2022-11-30T04:04:30;39.67;;;14.67;;
1136;SDS011;557;48.466;7.950;2022-11-30T04:07:16;31.47;;;14.50;;
1136;SDS011;557;48.466;7.950;2022-11-30T04:10:03;24.70;;;13.80;;
1136;SDS011;557;48.466;7.950;2022-11-30T04:12:49;27.07;;;13.43;;
1136;SDS011;557;48.466;7.950;2022-11-30T04:15:35;30.30;;;15.37;;
1136;SDS011;557;48.466;7.950;2022-11-30T04:18:21;31.50;;;13.80;;
1136;SDS011;557;48.466;7.950;2022-11-30T04:21:08;25.87;;;12.70;;
1136;SDS011;557;48.466;7.950;2022-11-30T04:23:54;24.90;;;12.03;;
1136;SDS011;557;48.466;7.950;2022-11-30T04:26:41;26.40;;;13.97;;
1136;SDS011;557;48.466;7.950;2022-11-30T04:29:28;34.00;;;15.67;;
1136;SDS011;557;48.466;7.950;2022-11-30T04:32:14;29.50;;;14.43;;
1136;SDS011;557;48.466;7.950;2022-11-30T04:34:59;34.60;;;15.10;;
1136;SDS011;557;48.466;7.950;2022-11-30T04:37:45;38.03;;;17.60;;
1136;SDS011;557;48.466;7.950;2022-11-30T04:40:31;33.73;;;16.37;;
1136;SDS011;557;48.466;7.950;2022-11-30T04:43:18;39.27;;;15.30;;
1136;SDS011;557;48.466;7.950;2022-11-30T04:46:06;37.47;;;16.53;;
1136;SDS011;557;48.466;7.950;2022-11-30T04:48:52;41.87;;;15.80;;
1136;SDS011;557;48.466;7.950;2022-11-30T04:51:37;34.80;;;14.50;;
1136;SDS011;557;48.466;7.950;2022-11-30T04:54:23;34.60;;;13.30;;
1136;SDS011;557;48.466;7.950;2022-11-30T04:57:08;44.90;;;16.20;;
1136;SDS011;557;48.466;7.950;2022-11-30T04:59:55;50.43;;;16.57;;
1136;SDS011;557;48.466;7.950;2022-11-30T05:02:41;36.63;;;15.33;;
1136;SDS011;557;48.466;7.950;2022-11-30T05:05:27;32.93;;;13.13;;
1136;SDS011;557;48.466;7.950;2022-11-30T05:08:13;35.10;;;14.03;;
1136;SDS011;557;48.466;7.950;2022-11-30T05:10:58;39.47;;;15.20;;
1136;SDS011;557;48.466;7.950;2022-11-30T05:13:44;42.90;;;15.17;;
1136;SDS011;557;48.466;7.950;2022-11-30T05:16:31;42.20;;;14.83;;
1136;SDS011;557;48.466;7.950;2022-11-30T05:19:16;38.50;;;17.20;;
1136;SDS011;557;48.466;7.950;2022-11-30T05:22:02;41.60;;;15.70;;
1136;SDS011;557;48.466;7.950;2022-11-30T05:24:48;42.07;;;14.90;;
1136;SDS011;557;48.466;7.950;2022-11-30T05:27:34;41.63;;;17.60;;
1136;SDS011;557;48.466;7.950;2022-11-30T05:30:20;35.53;;;14.97;;
1136;SDS011;557;48.466;7.950;2022-11-30T05:33:07;35.17;;;14.50;;
1136;SDS011;557;48.466;7.950;2022-11-30T05:35:53;49.50;;;17.27;;
1136;SDS011;557;48.466;7.950;2022-11-30T05:38:38;35.60;;;13.73;;
1136;SDS011;557;48.466;7.950;2022-11-30T05:41:24;39.90;;;14.87;;
1136;SDS011;557;48.466;7.950;2022-11-30T05:44:09;40.33;;;16.30;;
1136;SDS011;557;48.466;7.950;2022-11-30T05:46:55;42.67;;;15.67;;
1136;SDS011;557;48.466;7.950;2022-11-30T05:49:42;39.20;;;14.03;;
1136;SDS011;557;48.466;7.950;2022-11-30T05:52:28;38.47;;;15.00;;
1136;SDS011;557;48.466;7.950;2022-11-30T05:55:14;48.63;;;15.90;;
1136;SDS011;557;48.466;7.950;2022-11-30T05:57:59;38.93;;;13.73;;
1136;SDS011;557;48.466;7.950;2022-11-30T06:00:45;40.27;;;14.67;;
1136;SDS011;557;48.466;7.950;2022-11-30T06:03:31;32.13;;;12.80;;
1136;SDS011;557;48.466;7.950;2022-11-30T06:06:20;31.00;;;13.90;;
1136;SDS011;557;48.466;7.950;2022-11-30T06:09:06;44.77;;;13.57;;
1136;SDS011;557;48.466;7.950;2022-11-30T06:11:52;37.43;;;13.90;;
1136;SDS011;557;48.466;7.950;2022-11-30T06:14:38;37.63;;;13.30;;
1136;SDS011;557;48.466;7.950;2022-11-30T06:17:23;34.43;;;13.20;;
1136;SDS011;557;48.466;7.950;2022-11-30T06:20:09;40.77;;;13.40;;
1136;SDS011;557;48.466;7.950;2022-11-30T06:22:56;38.93;;;12.70;;
1136;SDS011;557;48.466;7.950;2022-11-30T06:25:43;47.57;;;14.00;;
1136;SDS011;557;48.466;7.950;2022-11-30T06:28:28;41.43;;;13.93;;
1136;SDS011;557;48.466;7.950;2022-11-30T06:31:14;36.63;;;13.17;;
1136;SDS011;557;48.466;7.950;2022-11-30T06:34:00;36.30;;;12.70;;
1136;SDS011;557;48.466;7.950;2022-11-30T06:36:45;44.70;;;14.33;;
1136;SDS011;557;48.466;7.950;2022-11-30T06:39:32;35.80;;;14.00;;
1136;SDS011;557;48.466;7.950;2022-11-30T06:42:17;37.13;;;15.17;;
1136;SDS011;557;48.466;7.950;2022-11-30T06:45:04;36.97;;;13.70;;
1136;SDS011;557;48.466;7.950;2022-11-30T06:47:53;38.30;;;12.47;;
1136;SDS011;557;48.466;7.950;2022-11-30T06:50:39;40.43;;;14.10;;
1136;SDS011;557;48.466;7.950;2022-11-30T06:53:25;34.37;;;12.63;;
1136;SDS011;557;48.466;7.950;2022-11-30T06:56:13;36.70;;;13.03;;
1136;SDS011;557;48.466;7.950;2022-11-30T06:58:58;34.40;;;11.90;;
1136;SDS011;557;48.466;7.950;2022-11-30T07:01:44;33.90;;;12.07;;
1136;SDS011;557;48.466;7.950;2022-11-30T07:04:29;40.50;;;14.70;;
1136;SDS011;557;48.466;7.950;2022-11-30T07:07:15;41.80;;;13.37;;
1136;SDS011;557;48.466;7.950;2022-11-30T07:10:01;38.37;;;12.90;;
1136;SDS011;557;48.466;7.950;2022-11-30T07:12:48;37.50;;;14.77;;
1136;SDS011;557;48.466;7.950;2022-11-30T07:15:34;32.67;;;12.67;;
1136;SDS011;557;48.466;7.950;2022-11-30T07:18:20;36.70;;;12.83;;
1136;SDS011;557;48.466;7.950;2022-11-30T07:21:06;28.83;;;12.40;;
1136;SDS011;557;48.466;7.950;2022-11-30T07:23:52;33.63;;;11.90;;
1136;SDS011;557;48.466;7.950;2022-11-30T07:26:57;33.43;;;12.23;;
1136;SDS011;557;48.466;7.950;2022-11-30T07:29:45;37.60;;;12.00;;
1136;SDS011;557;48.466;7.950;2022-11-30T07:32:34;38.50;;;13.77;;
1136;SDS011;557;48.466;7.950;2022-11-30T07:35:19;36.57;;;12.87;;
1136;SDS011;557;48.466;7.950;2022-11-30T07:38:05;31.03;;;12.07;;
1136;SDS011;557;48.466;7.950;2022-11-30T07:40:51;34.27;;;12.43;;
1136;SDS011;557;48.466;7.950;2022-11-30T07:43:37;32.20;;;12.37;;
1136;SDS011;557;48.466;7.950;2022-11-30T07:46:24;34.23;;;13.17;;
1136;SDS011;557;48.466;7.950;2022-11-30T07:49:10;32.87;;;13.97;;
1136;SDS011;557;48.466;7.950;2022-11-30T07:51:55;33.27;;;13.00;;
1136;SDS011;557;48.466;7.950;2022-11-30T07:54:40;40.33;;;14.37;;
1136;SDS011;557;48.466;7.950;2022-11-30T07:57:26;32.50;;;12.80;;
1136;SDS011;557;48.466;7.950;2022-11-30T08:00:12;33.67;;;13.87;;
1136;SDS011;557;48.466;7.950;2022-11-30T08:02:59;30.73;;;12.53;;
1136;SDS011;557;48.466;7.950;2022-11-30T08:05:45;38.10;;;13.80;;
1136;SDS011;557;48.466;7.950;2022-11-30T08:08:30;24.93;;;11.37;;
1136;SDS011;557;48.466;7.950;2022-11-30T08:11:17;31.33;;;13.70;;
1136;SDS011;557;48.466;7.950;2022-11-30T08:14:04;33.87;;;12.70;;
1136;SDS011;557;48.466;7.950;2022-11-30T08:16:50;34.60;;;14.80;;
1136;SDS011;557;48.466;7.950;2022-11-30T08:19:37;33.17;;;13.83;;
1136;SDS011;557;48.466;7.950;2022-11-30T08:22:22;29.50;;;12.73;;
1136;SDS011;557;48.466;7.950;2022-11-30T08:25:08;31.83;;;13.70;;
1136;SDS011;557;48.466;7.950;2022-11-30T08:27:54;35.60;;;13.80;;
1136;SDS011;557;48.466;7.950;2022-11-30T08:30:40;32.47;;;14.67;;
1136;SDS011;557;48.466;7.950;2022-11-30T08:33:25;30.13;;;12.33;;
1136;SDS011;557;48.466;7.950;2022-11-30T08:36:13;33.63;;;14.20;;
1136;SDS011;557;48.466;7.950;2022-11-30T08:39:00;30.50;;;13.13;;
1136;SDS011;557;48.466;7.950;2022-11-30T08:41:47;25.63;;;12.30;;
1136;SDS011;557;48.466;7.950;2022-11-30T08:44:35;31.70;;;13.83;;
1136;SDS011;557;48.466;7.950;2022-11-30T08:47:20;30.10;;;13.43;;
1136;SDS011;557;48.466;7.950;2022-11-30T08:50:06;36.07;;;13.70;;
1136;SDS011;557;48.466;7.950;2022-11-30T08:52:54;29.63;;;13.70;;
1136;SDS011;557;48.466;7.950;2022-11-30T08:55:40;29.77;;;13.83;;
1136;SDS011;557;48.466;7.950;2022-11-30T08:58:26;34.13;;;13.53;;
1136;SDS011;557;48.466;7.950;2022-11-30T09:01:14;34.60;;;14.73;;
1136;SDS011;557;48.466;7.950;2022-11-30T09:04:01;28.47;;;12.97;;
1136;SDS011;557;48.466;7.950;2022-11-30T09:06:46;28.40;;;12.80;;
1136;SDS011;557;48.466;7.950;2022-11-30T09:09:34;33.00;;;15.90;;
1136;SDS011;557;48.466;7.950;2022-11-30T09:12:20;38.90;;;14.23;;
1136;SDS011;557;48.466;7.950;2022-11-30T09:15:05;32.53;;;15.30;;
1136;SDS011;557;48.466;7.950;2022-11-30T09:17:52;34.33;;;14.00;;
1136;SDS011;557;48.466;7.950;2022-11-30T09:20:38;40.00;;;14.83;;
1136;SDS011;557;48.466;7.950;2022-11-30T09:23:23;29.03;;;15.17;;
1136;SDS011;557;48.466;7.950;2022-11-30T09:26:11;33.27;;;15.53;;
1136;SDS011;557;48.466;7.950;2022-11-30T09:28:58;40.00;;;15.23;;
1136;SDS011;557;48.466;7.950;2022-11-30T09:31:44;31.47;;;14.20;;
1136;SDS011;557;48.466;7.950;2022-11-30T09:34:32;36.40;;;14.73;;
1136;SDS011;557;48.466;7.950;2022-11-30T09:37:17;44.17;;;15.70;;
1136;SDS011;557;48.466;7.950;2022-11-30T09:40:03;32.20;;;15.00;;
1136;SDS011;557;48.466;7.950;2022-11-30T09:42:53;29.80;;;14.13;;
1136;SDS011;557;48.466;7.950;2022-11-30T09:45:45;28.80;;;14.80;;
1136;SDS011;557;48.466;7.950;2022-11-30T09:48:49;30.87;;;13.57;;
1136;SDS011;557;48.466;7.950;2022-11-30T09:51:41;27.43;;;13.53;;
1136;SDS011;557;48.466;7.950;2022-11-30T09:54:30;28.07;;;14.00;;
1136;SDS011;557;48.466;7.950;2022-11-30T09:57:22;27.07;;;14.13;;
1136;SDS011;557;48.466;7.950;2022-11-30T10:00:13;30.73;;;13.27;;
1136;SDS011;557;48.466;7.950;2022-11-30T10:03:01;23.77;;;12.87;;
1136;SDS011;557;48.466;7.950;2022-11-30T10:05:50;25.67;;;13.13;;
1136;SDS011;557;48.466;7.950;2022-11-30T10:08:44;25.30;;;13.07;;
1136;SDS011;557;48.466;7.950;2022-11-30T10:11:39;24.83;;;14.70;;
1136;SDS011;557;48.466;7.950;2022-11-30T10:14:52;27.00;;;14.07;;
1136;SDS011;557;48.466;7.950;2022-11-30T10:17:49;20.83;;;12.40;;
1136;SDS011;557;48.466;7.950;2022-11-30T10:20:41;25.03;;;13.43;;
1136;SDS011;557;48.466;7.950;2022-11-30T10:23:36;21.33;;;11.30;;
1136;SDS011;557;48.466;7.950;2022-11-30T10:26:32;20.47;;;13.00;;
1136;SDS011;557;48.466;7.950;2022-11-30T10:29:23;21.67;;;13.17;;
1136;SDS011;557;48.466;7.950;2022-11-30T10:32:16;22.00;;;13.43;;
1136;SDS011;557;48.466;7.950;2022-11-30T10:35:12;20.70;;;12.47;;
1136;SDS011;557;48.466;7.950;2022-11-30T10:38:02;22.27;;;12.03;;
1136;SDS011;557;48.466;7.950;2022-11-30T10:40:56;22.53;;;11.50;;
1136;SDS011;557;48.466;7.950;2022-11-30T10:43:47;21.77;;;11.90;;
1136;SDS011;557;48.466;7.950;2022-11-30T10:46:37;23.10;;;12.37;;
1136;SDS011;557;48.466;7.950;2022-11-30T10:49:27;17.93;;;12.13;;
1136;SDS011;557;48.466;7.950;2022-11-30T10:52:16;22.80;;;11.73;;
1136;SDS011;557;48.466;7.950;2022-11-30T10:55:10;18.77;;;11.20;;
1136;SDS011;557;48.466;7.950;2022-11-30T10:57:59;20.60;;;12.27;;
1136;SDS011;557;48.466;7.950;2022-11-30T11:00:51;22.40;;;11.73;;
1136;SDS011;557;48.466;7.950;2022-11-30T11:03:42;21.07;;;11.63;;
1136;SDS011;557;48.466;7.950;2022-11-30T11:06:27;19.97;;;12.07;;
1136;SDS011;557;48.466;7.950;2022-11-30T11:12:25;22.50;;;12.00;;
1136;SDS011;557;48.466;7.950;2022-11-30T11:15:16;18.20;;;10.80;;
1136;SDS011;557;48.466;7.950;2022-11-30T11:21:15;22.77;;;11.23;;
1136;SDS011;557;48.466;7.950;2022-11-30T11:24:02;18.63;;;10.33;;
1136;SDS011;557;48.466;7.950;2022-11-30T11:26:55;18.30;;;10.00;;
1136;SDS011;557;48.466;7.950;2022-11-30T11:29:41;17.77;;;11.37;;
1136;SDS011;557;48.466;7.950;2022-11-30T11:32:27;20.47;;;11.30;;
1136;SDS011;557;48.466;7.950;2022-11-30T11:38:19;17.13;;;10.40;;
1136;SDS011;557;48.466;7.950;2022-11-30T11:41:10;18.10;;;10.67;;
1136;SDS011;557;48.466;7.950;2022-11-30T11:44:04;14.27;;;9.20;;
1136;SDS011;557;48.466;7.950;2022-11-30T11:47:05;16.73;;;10.37;;
1136;SDS011;557;48.466;7.950;2022-11-30T11:50:02;18.03;;;11.07;;
1136;SDS011;557;48.466;7.950;2022-11-30T11:53:16;16.67;;;9.90;;
1136;SDS011;557;48.466;7.950;2022-11-30T11:56:09;18.23;;;10.20;;
1136;SDS011;557;48.466;7.950;2022-11-30T11:58:57;17.57;;;10.73;;
1136;SDS011;557;48.466;7.950;2022-11-30T12:01:49;19.07;;;10.77;;
1136;SDS011;557;48.466;7.950;2022-11-30T12:04:43;19.50;;;10.57;;
1136;SDS011;557;48.466;7.950;2022-11-30T12:07:33;17.17;;;10.87;;
1136;SDS011;557;48.466;7.950;2022-11-30T12:10:24;18.77;;;10.80;;
1136;SDS011;557;48.466;7.950;2022-11-30T12:13:14;16.50;;;10.23;;
1136;SDS011;557;48.466;7.950;2022-11-30T12:16:04;18.30;;;10.60;;
1136;SDS011;557;48.466;7.950;2022-11-30T12:19:05;20.60;;;11.67;;
1136;SDS011;557;48.466;7.950;2022-11-30T12:21:59;19.80;;;10.73;;
1136;SDS011;557;48.466;7.950;2022-11-30T12:24:54;15.83;;;11.40;;
1136;SDS011;557;48.466;7.950;2022-11-30T12:27:56;20.67;;;9.90;;
1136;SDS011;557;48.466;7.950;2022-11-30T12:30:50;17.03;;;10.10;;
1136;SDS011;557;48.466;7.950;2022-11-30T12:33:45;16.97;;;11.27;;
1136;SDS011;557;48.466;7.950;2022-11-30T12:36:47;19.93;;;12.33;;
1136;SDS011;557;48.466;7.950;2022-11-30T12:39:41;17.73;;;10.83;;
1136;SDS011;557;48.466;7.950;2022-11-30T12:42:35;14.67;;;9.30;;
1136;SDS011;557;48.466;7.950;2022-11-30T12:45:26;18.40;;;10.90;;
1136;SDS011;557;48.466;7.950;2022-11-30T12:48:21;19.87;;;11.90;;
1136;SDS011;557;48.466;7.950;2022-11-30T12:51:19;16.27;;;10.67;;
1136;SDS011;557;48.466;7.950;2022-11-30T12:54:11;14.40;;;9.97;;
1136;SDS011;557;48.466;7.950;2022-11-30T12:57:04;17.33;;;10.13;;
1136;SDS011;557;48.466;7.950;2022-11-30T13:00:00;17.77;;;10.47;;
1136;SDS011;557;48.466;7.950;2022-11-30T13:02:58;16.00;;;11.00;;
1136;SDS011;557;48.466;7.950;2022-11-30T13:05:53;18.47;;;11.63;;
1136;SDS011;557;48.466;7.950;2022-11-30T13:08:48;15.10;;;9.23;;
1136;SDS011;557;48.466;7.950;2022-11-30T13:11:42;17.20;;;10.53;;
1136;SDS011;557;48.466;7.950;2022-11-30T13:14:31;19.30;;;11.20;;
1136;SDS011;557;48.466;7.950;2022-11-30T13:17:18;18.00;;;9.90;;
1136;SDS011;557;48.466;7.950;2022-11-30T13:20:04;19.47;;;9.97;;
1136;SDS011;557;48.466;7.950;2022-11-30T13:23:01;17.33;;;10.47;;
1136;SDS011;557;48.466;7.950;2022-11-30T13:25:54;21.87;;;10.03;;
1136;SDS011;557;48.466;7.950;2022-11-30T13:28:51;16.37;;;10.80;;
1136;SDS011;557;48.466;7.950;2022-11-30T13:31:59;18.03;;;10.00;;
1136;SDS011;557;48.466;7.950;2022-11-30T13:34:51;18.37;;;10.90;;
1136;SDS011;557;48.466;7.950;2022-11-30T13:37:37;17.37;;;10.70;;
1136;SDS011;557;48.466;7.950;2022-11-30T13:40:25;14.23;;;9.90;;
1136;SDS011;557;48.466;7.950;2022-11-30T13:43:13;17.37;;;9.33;;
1136;SDS011;557;48.466;7.950;2022-11-30T13:46:04;18.83;;;10.77;;
1136;SDS011;557;48.466;7.950;2022-11-30T13:49:08;15.00;;;9.70;;
1136;SDS011;557;48.466;7.950;2022-11-30T13:52:01;17.30;;;10.00;;
1136;SDS011;557;48.466;7.950;2022-11-30T13:54:48;14.67;;;9.90;;
1136;SDS011;557;48.466;7.950;2022-11-30T14:04:26;17.60;;;10.67;;
1136;SDS011;557;48.466;7.950;2022-11-30T14:10:29;19.30;;;11.20;;
1136;SDS011;557;48.466;7.950;2022-11-30T14:13:26;17.93;;;9.67;;
1136;SDS011;557;48.466;7.950;2022-11-30T14:16:19;20.40;;;9.90;;
1136;SDS011;557;48.466;7.950;2022-11-30T14:19:09;16.93;;;10.67;;
1136;SDS011;557;48.466;7.950;2022-11-30T14:21:55;16.07;;;9.60;;
1136;SDS011;557;48.466;7.950;2022-11-30T14:24:42;19.57;;;10.87;;
1136;SDS011;557;48.466;7.950;2022-11-30T14:27:31;16.97;;;9.97;;
1136;SDS011;557;48.466;7.950;2022-11-30T14:30:20;21.67;;;10.80;;
1136;SDS011;557;48.466;7.950;2022-11-30T14:33:10;15.47;;;9.87;;
1136;SDS011;557;48.466;7.950;2022-11-30T14:36:00;17.10;;;10.67;;
1136;SDS011;557;48.466;7.950;2022-11-30T14:38:47;16.33;;;9.57;;
1136;SDS011;557;48.466;7.950;2022-11-30T14:41:33;15.93;;;9.03;;
1136;SDS011;557;48.466;7.950;2022-11-30T14:44:19;16.30;;;10.60;;
1136;SDS011;557;48.466;7.950;2022-11-30T14:47:15;16.00;;;9.43;;
1136;SDS011;557;48.466;7.950;2022-11-30T14:50:06;16.30;;;10.37;;
1136;SDS011;557;48.466;7.950;2022-11-30T14:53:11;21.60;;;10.23;;
1136;SDS011;557;48.466;7.950;2022-11-30T14:56:07;17.13;;;9.77;;
1136;SDS011;557;48.466;7.950;2022-11-30T14:59:04;19.17;;;9.73;;
1136;SDS011;557;48.466;7.950;2022-11-30T15:01:59;20.33;;;10.50;;
1136;SDS011;557;48.466;7.950;2022-11-30T15:04:46;14.10;;;9.83;;
1136;SDS011;557;48.466;7.950;2022-11-30T15:07:33;17.30;;;9.90;;
1136;SDS011;557;48.466;7.950;2022-11-30T15:10:27;21.33;;;10.83;;
1136;SDS011;557;48.466;7.950;2022-11-30T15:13:15;18.13;;;10.10;;
1136;SDS011;557;48.466;7.950;2022-11-30T15:16:07;17.80;;;10.03;;
1136;SDS011;557;48.466;7.950;2022-11-30T15:18:54;16.13;;;9.70;;
1136;SDS011;557;48.466;7.950;2022-11-30T15:21:43;17.33;;;9.27;;
1136;SDS011;557;48.466;7.950;2022-11-30T15:24:30;20.20;;;9.90;;
1136;SDS011;557;48.466;7.950;2022-11-30T15:27:17;15.83;;;9.80;;
1136;SDS011;557;48.466;7.950;2022-11-30T15:30:11;17.80;;;10.00;;
1136;SDS011;557;48.466;7.950;2022-11-30T15:32:58;16.17;;;8.90;;
1136;SDS011;557;48.466;7.950;2022-11-30T15:35:44;19.00;;;9.73;;
1136;SDS011;557;48.466;7.950;2022-11-30T15:38:31;14.50;;;9.80;;
1136;SDS011;557;48.466;7.950;2022-11-30T15:41:18;19.63;;;9.87;;
1136;SDS011;557;48.466;7.950;2022-11-30T15:44:15;19.27;;;11.67;;
1136;SDS011;557;48.466;7.950;2022-11-30T15:47:22;17.63;;;10.23;;
1136;SDS011;557;48.466;7.950;2022-11-30T15:53:23;19.30;;;10.80;;
1136;SDS011;557;48.466;7.950;2022-11-30T15:56:20;18.40;;;11.60;;
1136;SDS011;557;48.466;7.950;2022-11-30T15:59:19;22.60;;;11.20;;
1136;SDS011;557;48.466;7.950;2022-11-30T16:02:06;18.37;;;10.97;;
1136;SDS011;557;48.466;7.950;2022-11-30T16:05:23;19.83;;;10.60;;
1136;SDS011;557;48.466;7.950;2022-11-30T16:08:13;17.87;;;11.03;;
1136;SDS011;557;48.466;7.950;2022-11-30T16:11:00;18.20;;;10.90;;
1136;SDS011;557;48.466;7.950;2022-11-30T16:13:46;15.17;;;10.30;;
1136;SDS011;557;48.466;7.950;2022-11-30T16:16:33;16.80;;;10.80;;
1136;SDS011;557;48.466;7.950;2022-11-30T16:19:18;17.97;;;10.20;;
1136;SDS011;557;48.466;7.950;2022-11-30T16:22:04;20.20;;;10.93;;
1136;SDS011;557;48.466;7.950;2022-11-30T16:24:52;19.80;;;11.50;;
1136;SDS011;557;48.466;7.950;2022-11-30T16:27:37;18.10;;;10.60;;
1136;SDS011;557;48.466;7.950;2022-11-30T16:30:23;17.87;;;11.00;;
1136;SDS011;557;48.466;7.950;2022-11-30T16:33:11;17.53;;;10.43;;
1136;SDS011;557;48.466;7.950;2022-11-30T16:35:59;16.77;;;10.77;;
1136;SDS011;557;48.466;7.950;2022-11-30T16:38:48;16.77;;;10.50;;
1136;SDS011;557;48.466;7.950;2022-11-30T16:41:36;19.67;;;11.97;;
1136;SDS011;557;48.466;7.950;2022-11-30T16:44:22;23.00;;;11.90;;
1136;SDS011;557;48.466;7.950;2022-11-30T16:47:07;17.50;;;11.70;;
1136;SDS011;557;48.466;7.950;2022-11-30T16:49:54;18.40;;;11.57;;
1136;SDS011;557;48.466;7.950;2022-11-30T16:52:40;23.07;;;12.97;;
1136;SDS011;557;48.466;7.950;2022-11-30T16:55:28;24.37;;;13.00;;
1136;SDS011;557;48.466;7.950;2022-11-30T16:58:14;21.00;;;11.60;;
1136;SDS011;557;48.466;7.950;2022-11-30T17:01:00;21.77;;;11.30;;
1136;SDS011;557;48.466;7.950;2022-11-30T17:03:46;22.73;;;11.90;;
1136;SDS011;557;48.466;7.950;2022-11-30T17:06:36;19.43;;;12.30;;
1136;SDS011;557;48.466;7.950;2022-11-30T17:09:22;20.30;;;11.97;;
1136;SDS011;557;48.466;7.950;2022-11-30T17:12:07;18.23;;;11.33;;
1136;SDS011;557;48.466;7.950;2022-11-30T17:14:53;19.77;;;12.00;;
1136;SDS011;557;48.466;7.950;2022-11-30T17:17:38;20.40;;;12.50;;
1136;SDS011;557;48.466;7.950;2022-11-30T17:20:24;20.40;;;12.73;;
1136;SDS011;557;48.466;7.950;2022-11-30T17:23:12;22.43;;;13.00;;
1136;SDS011;557;48.466;7.950;2022-11-30T17:25:57;18.73;;;12.17;;
1136;SDS011;557;48.466;7.950;2022-11-30T17:28:43;16.30;;;10.37;;
1136;SDS011;557;48.466;7.950;2022-11-30T17:31:28;16.70;;;10.70;;
1136;SDS011;557;48.466;7.950;2022-11-30T17:34:14;18.40;;;11.10;;
1136;SDS011;557;48.466;7.950;2022-11-30T17:36:59;20.73;;;11.67;;